Time;durP1;ratioP1;P1;durP2;ratioP2;P2;SDS_P1;SDS_P2;PMS_P1;PMS_P2;Temp;Humidity;BMP_temperature;BMP_pressure;BME280_temperature;BME280_humidity;BME280_pressure;Samples;Min_cycle;Max_cycle;Signal;HPM_P1;HPM_P2
2023/12/18 00:01:36;;;;;;;11.60;5.90;;;;;;;3.47;100.00;103222.38;4933612;29;20450;-83
2023/12/18 00:04:03;;;;;;;13.65;6.32;;;;;;;3.63;100.00;103258.34;4969006;23;20054;-83
2023/12/18 00:06:29;;;;;;;;;;;;;;;3.66;100.00;103248.19;4976914;28;20039;-84
2023/12/18 00:08:54;;;;;;;15.37;7.30;;;;;;;3.69;100.00;103247.50;4977270;28;19918;-83
2023/12/18 00:11:19;;;;;;;14.35;6.75;;;;;;;3.73;100.00;103246.84;4977957;28;20313;-83
2023/12/18 00:13:45;;;;;;;14.52;6.50;;;;;;;3.74;100.00;103247.75;4977565;28;20130;-84
2023/12/18 00:16:25;;;;;;;12.57;6.00;;;;;;;3.72;100.00;103234.78;4977150;28;20034;-83
2023/12/18 00:18:53;;;;;;;14.93;6.28;;;;;;;3.81;100.00;103245.56;4976311;28;20034;-84
2023/12/18 00:21:18;;;;;;;16.25;7.00;;;;;;;3.83;100.00;103243.94;4977960;28;20054;-83
2023/12/18 00:23:43;;;;;;;14.82;7.07;;;;;;;3.83;100.00;103238.81;4976541;28;20529;-83
2023/12/18 00:26:12;;;;;;;16.40;7.40;;;;;;;3.88;100.00;103236.50;4978273;28;20019;-84
2023/12/18 00:28:37;;;;;;;15.25;6.82;;;;;;;3.84;100.00;103219.16;4976408;28;20172;-83
2023/12/18 00:31:03;;;;;;;14.00;6.55;;;;;;;3.93;100.00;103223.88;4977578;28;20119;-84
2023/12/18 00:33:41;;;;;;;14.00;6.15;;;;;;;3.81;100.00;103209.59;4977079;28;20018;-83
2023/12/18 00:36:07;;;;;;;14.07;6.20;;;;;;;3.82;100.00;103213.94;4976761;28;20122;-83
2023/12/18 00:38:44;;;;;;;12.57;6.10;;;;;;;3.88;100.00;103222.75;4977321;28;20062;-83
2023/12/18 00:41:15;;;;;;;13.27;6.30;;;;;;;3.92;100.00;103219.53;4977526;28;20676;-83
2023/12/18 00:43:52;;;;;;;13.35;5.85;;;;;;;3.95;100.00;103225.72;4976230;28;20467;-83
2023/12/18 00:46:18;;;;;;;11.52;5.70;;;;;;;3.93;100.00;103213.59;4977445;28;20026;-83
2023/12/18 00:48:43;;;;;;;10.52;5.40;;;;;;;3.92;100.00;103206.69;4976864;28;20490;-83
2023/12/18 00:51:25;;;;;;;10.40;5.10;;;;;;;3.93;100.00;103203.31;4976732;28;20022;-83
2023/12/18 00:53:50;;;;;;;9.75;4.72;;;;;;;3.89;100.00;103196.25;4976948;28;20043;-83
2023/12/18 00:56:16;;;;;;;11.10;4.75;;;;;;;4.02;100.00;103221.78;4976717;28;20583;-83
2023/12/18 00:58:41;;;;;;;12.15;5.75;;;;;;;3.94;100.00;103207.66;4976518;28;20031;-83
2023/12/18 01:01:06;;;;;;;14.60;6.70;;;;;;;4.03;100.00;103223.53;4976756;28;20027;-83
2023/12/18 01:03:38;;;;;;;14.57;6.10;;;;;;;4.04;100.00;103214.13;4984831;28;20050;-83
2023/12/18 01:06:05;;;;;;;14.48;6.28;;;;;;;3.89;100.00;103191.97;4995477;28;20058;-83
2023/12/18 01:08:44;;;;;;;9.88;5.40;;;;;;;3.91;100.00;103184.38;4996303;28;20026;-83
2023/12/18 01:11:10;;;;;;;16.42;7.25;;;;;;;4.07;100.00;103215.16;4995906;28;20085;-83
2023/12/18 01:13:35;;;;;;;14.85;6.82;;;;;;;4.07;100.00;103210.00;4995948;28;20026;-83
2023/12/18 01:16:15;;;;;;;15.38;6.97;;;;;;;4.01;100.00;103191.72;4996124;28;20097;-83
2023/12/18 01:18:41;;;;;;;15.38;7.20;;;;;;;4.14;100.00;103208.63;4995295;28;20027;-83
2023/12/18 01:21:06;;;;;;;17.17;7.32;;;;;;;4.11;100.00;103206.81;4996284;28;20028;-83
2023/12/18 01:23:31;;;;;;;14.20;6.40;;;;;;;4.07;100.00;103188.59;4995367;28;20368;-83
2023/12/18 01:25:57;;;;;;;15.35;7.10;;;;;;;4.12;100.00;103199.97;4995452;28;20030;-84
2023/12/18 01:28:22;;;;;;;12.88;6.47;;;;;;;4.03;100.00;103179.84;4995718;28;20042;-83
2023/12/18 01:31:07;;;;;;;14.63;6.47;;;;;;;4.00;100.00;103171.97;4996212;28;20077;-83
2023/12/18 01:33:45;;;;;;;17.33;7.47;;;;;;;4.20;100.00;103200.34;4995515;28;20049;-83
2023/12/18 01:36:23;;;;;;;17.73;7.93;;;;;;;4.14;100.00;103195.78;4995988;28;20069;-83
2023/12/18 01:38:54;;;;;;;15.07;7.40;;;;;;;4.09;100.00;103185.28;4995306;28;20035;-83
2023/12/18 01:41:32;;;;;;;15.05;6.65;;;;;;;4.11;100.00;103196.53;4995812;28;20042;-83
2023/12/18 01:43:57;;;;;;;12.73;5.97;;;;;;;4.16;100.00;103197.66;4995735;28;20107;-83
2023/12/18 01:46:24;;;;;;;15.45;6.88;;;;;;;4.17;100.00;103204.53;4995183;28;20130;-83
2023/12/18 01:48:52;;;;;;;15.57;7.07;;;;;;;4.18;100.00;103195.13;4996160;28;20046;-83
2023/12/18 01:51:19;;;;;;;13.68;6.50;;;;;;;4.32;100.00;103218.94;4996017;28;20026;-83
2023/12/18 01:54:10;;;;;;;14.00;6.68;;;;;;;4.34;100.00;103217.34;4994933;28;20065;-84
2023/12/18 01:56:38;;;;;;;13.77;6.55;;;;;;;4.28;100.00;103199.91;4995716;28;20050;-83
2023/12/18 01:59:17;;;;;;;13.35;6.25;;;;;;;4.33;100.00;103213.00;4995954;28;20062;-84
2023/12/18 02:02:02;;;;;;;16.38;7.30;;;;;;;4.38;100.00;103208.06;4994846;28;20114;-83
2023/12/18 02:04:37;;;;;;;14.77;6.55;;;;;;;4.39;100.00;103191.84;5011013;23;20075;-83
2023/12/18 02:07:03;;;;;;;16.05;7.22;;;;;;;4.31;100.00;103165.75;4956221;28;20035;-84
2023/12/18 02:09:47;;;;;;;15.77;7.60;;;;;;;4.28;100.00;103169.06;4956591;29;20498;-84
2023/12/18 02:12:18;;;;;;;14.50;7.00;;;;;;;4.42;100.00;103186.84;4956707;29;20039;-83
2023/12/18 02:15:05;;;;;;;14.10;6.90;;;;;;;4.48;100.00;103194.84;4955805;29;20027;-83
2023/12/18 02:17:33;;;;;;;11.77;5.82;;;;;;;4.50;100.00;103187.22;4956348;29;20039;-83
2023/12/18 02:20:06;;;;;;;15.75;7.00;;;;;;;4.51;100.00;103186.38;4956013;29;20032;-83
2023/12/18 02:22:47;;;;;;;16.55;7.32;;;;;;;4.46;100.00;103181.03;4955867;29;20078;-83
2023/12/18 02:25:15;;;;;;;16.17;7.47;;;;;;;4.47;100.00;103186.28;4956615;28;20106;-83
2023/12/18 02:27:40;;;;;;;16.83;8.00;;;;;;;4.50;100.00;103182.09;4955920;29;20035;-84
2023/12/18 02:30:17;;;;;;;16.43;7.57;;;;;;;4.52;100.00;103183.00;4955739;29;20030;-83
2023/12/18 02:32:43;;;;;;;14.65;6.93;;;;;;;4.43;100.00;103166.34;4956458;29;20035;-83
2023/12/18 02:35:08;;;;;;;14.13;6.93;;;;;;;4.39;100.00;103158.41;4956576;29;20038;-83
2023/12/18 02:37:45;;;;;;;16.63;7.35;;;;;;;4.47;100.00;103164.78;4955889;29;20023;-84
2023/12/18 02:40:10;;;;;;;;;;;;;;;4.53;100.00;103175.38;4956585;29;20054;-84
2023/12/18 02:42:41;;;;;;;17.43;8.10;;;;;;;4.50;100.00;103174.38;4953955;28;20327;-84
2023/12/18 02:45:07;;;;;;;17.92;8.43;;;;;;;4.52;100.00;103177.88;4956214;29;20031;-84
2023/12/18 02:47:33;;;;;;;15.25;7.55;;;;;;;4.44;100.00;103162.09;4955647;29;20101;-83
2023/12/18 02:50:16;;;;;;;16.40;7.57;;;;;;;4.52;100.00;103168.47;4955586;29;20395;-83
2023/12/18 02:52:59;;;;;;;15.50;7.18;;;;;;;4.40;100.00;103142.19;4955815;29;20034;-84
2023/12/18 02:55:30;;;;;;;16.15;7.20;;;;;;;4.44;100.00;103136.38;4955871;29;20027;-83
2023/12/18 02:57:58;;;;;;;15.90;7.30;;;;;;;4.57;100.00;103160.97;4954314;29;20035;-83
2023/12/18 03:00:39;;;;;;;18.55;8.50;;;;;;;4.55;100.00;103160.03;4955947;29;20027;-84
2023/12/18 03:03:07;;;;;;;17.80;8.60;;;;;;;4.51;100.00;103148.72;4955786;29;20126;-84
2023/12/18 03:08:35;;;;;;;15.60;7.22;;;;;;;4.55;100.00;103139.44;4999409;23;20064;-83
2023/12/18 03:11:05;;;;;;;13.00;6.50;;;;;;;4.55;100.00;103149.72;4993609;28;20141;-83
2023/12/18 03:13:30;;;;;;;15.27;6.75;;;;;;;4.55;100.00;103152.31;4994544;28;20049;-83
2023/12/18 03:15:57;;;;;;;13.82;6.68;;;;;;;4.55;100.00;103145.50;4993980;28;20522;-83
2023/12/18 03:18:25;;;;;;;13.93;6.57;;;;;;;4.52;100.00;103141.88;4993876;28;20030;-83
2023/12/18 03:21:00;;;;;;;14.98;6.78;;;;;;;4.57;100.00;103145.56;4990600;28;20289;-83
2023/12/18 03:23:40;;;;;;;15.98;7.35;;;;;;;4.52;100.00;103142.75;4993617;28;20562;-83
2023/12/18 03:26:05;;;;;;;17.65;8.00;;;;;;;4.57;100.00;103154.13;4993647;28;20069;-84
2023/12/18 03:28:30;;;;;;;17.63;8.32;;;;;;;4.46;100.00;103130.50;4993883;28;20494;-84
2023/12/18 03:30:56;;;;;;;18.30;8.40;;;;;;;4.45;100.00;103131.31;4994373;28;20041;-83
2023/12/18 03:33:33;;;;;;;17.38;8.48;;;;;;;4.44;100.00;103120.97;4993864;28;20387;-84
2023/12/18 03:36:17;;;;;;;17.27;8.13;;;;;;;4.41;100.00;103120.81;4994070;28;20026;-83
2023/12/18 03:38:42;;;;;;;17.08;7.85;;;;;;;4.44;100.00;103126.97;4992399;28;20495;-83
2023/12/18 03:41:08;;;;;;;15.95;7.32;;;;;;;4.45;100.00;103133.88;4993521;28;20074;-84
2023/12/18 03:43:52;;;;;;;17.40;7.80;;;;;;;4.46;100.00;103129.59;4993698;28;20105;-84
2023/12/18 03:46:32;;;;;;;18.30;8.38;;;;;;;4.40;100.00;103126.75;4992837;28;20277;-83
2023/12/18 03:48:57;;;;;;;16.90;8.27;;;;;;;4.43;100.00;103134.63;4993729;28;20038;-83
2023/12/18 03:51:22;;;;;;;15.85;7.50;;;;;;;4.41;100.00;103125.94;4993709;28;20022;-84
2023/12/18 03:54:13;;;;;;;15.10;7.72;;;;;;;4.55;100.00;103152.31;4993061;28;20077;-83
2023/12/18 03:56:59;;;;;;;18.85;8.60;;;;;;;4.51;100.00;103129.81;4993388;28;20027;-83
2023/12/18 03:59:24;;;;;;;18.00;8.43;;;;;;;4.54;100.00;103143.72;5040770;23;20069;-84
2023/12/18 04:01:50;;;;;;;15.60;7.90;;;;;;;4.57;100.00;103149.00;4992679;28;20069;-84
2023/12/18 04:04:15;;;;;;;19.58;9.00;;;;;;;4.53;100.00;103147.09;4994142;28;20022;-84
2023/12/18 04:06:44;;;;;;;20.63;10.17;;;;;;;4.60;100.00;103154.28;4993393;28;20018;-83
2023/12/18 04:09:10;;;;;;;20.05;9.95;;;;;;;4.61;100.00;103150.91;4994029;28;20391;-83
2023/12/18 04:11:35;;;;;;;19.67;9.70;;;;;;;4.60;100.00;103148.28;4993546;28;20033;-84
2023/12/18 04:14:02;;;;;;;19.27;9.45;;;;;;;4.48;100.00;103126.31;4992926;28;20034;-83
2023/12/18 04:16:39;;;;;;;20.88;10.15;;;;;;;4.54;100.00;103141.16;4993681;28;20402;-84
2023/12/18 04:19:07;;;;;;;20.15;10.27;;;;;;;4.56;100.00;103139.50;4994095;28;20018;-84
2023/12/18 04:21:33;;;;;;;18.90;9.40;;;;;;;4.53;100.00;103133.34;4992518;28;20030;-83
2023/12/18 04:24:16;;;;;;;20.17;9.07;;;;;;;4.63;100.00;103151.88;4993937;28;20028;-84
2023/12/18 04:26:43;;;;;;;18.58;8.85;;;;;;;4.61;100.00;103144.91;4993457;28;20030;-84
2023/12/18 04:29:17;;;;;;;18.38;8.70;;;;;;;4.60;100.00;103138.00;4993325;28;20105;-83
2023/12/18 04:31:43;;;;;;;17.40;8.10;;;;;;;4.58;100.00;103135.31;4993406;28;20018;-84
2023/12/18 04:34:21;;;;;;;17.30;8.32;;;;;;;4.53;100.00;103121.38;4993620;28;20077;-84
2023/12/18 04:37:01;;;;;;;17.85;8.10;;;;;;;4.55;100.00;103124.00;4992482;28;20106;-83
2023/12/18 04:39:33;;;;;;;15.45;7.07;;;;;;;4.61;100.00;103119.19;4993508;28;20097;-83
2023/12/18 04:42:16;;;;;;;18.50;8.02;;;;;;;4.52;100.00;103111.91;4973709;28;20146;-83
2023/12/18 04:44:42;;;;;;;18.75;9.00;;;;;;;4.61;100.00;103126.88;4978170;28;20026;-84
2023/12/18 04:47:07;;;;;;;20.20;9.25;;;;;;;4.69;100.00;103135.84;4993530;28;20022;-83
2023/12/18 04:49:47;;;;;;;19.47;8.53;;;;;;;4.67;100.00;103134.88;4992685;28;20041;-83
2023/12/18 04:52:20;;;;;;;17.95;8.35;;;;;;;4.58;100.00;103112.19;4997155;28;20026;-83
2023/12/18 04:54:58;;;;;;;16.17;7.75;;;;;;;4.58;100.00;103101.88;4997108;28;20081;-83
2023/12/18 04:57:23;;;;;;;17.17;7.60;;;;;;;4.59;100.00;103102.78;4996697;28;20026;-83
2023/12/18 04:59:49;;;;;;;16.83;7.70;;;;;;;4.59;100.00;103098.50;4996107;28;20517;-83
2023/12/18 05:02:14;;;;;;;17.70;8.02;;;;;;;4.73;100.00;103130.00;5015486;23;20142;-83
2023/12/18 05:04:39;;;;;;;18.23;8.00;;;;;;;4.76;100.00;103135.28;4976235;28;20113;-84
2023/12/18 05:07:07;;;;;;;16.67;7.32;;;;;;;4.72;100.00;103133.41;4977052;28;20034;-83
2023/12/18 05:09:33;;;;;;;19.55;8.23;;;;;;;4.74;100.00;103124.03;4976909;28;20030;-84
2023/12/18 05:11:58;;;;;;;18.67;8.80;;;;;;;4.71;100.00;103121.34;4976663;28;20035;-83
2023/12/18 05:14:23;;;;;;;19.55;9.55;;;;;;;4.80;100.00;103131.16;4977225;28;20031;-83
2023/12/18 05:16:49;;;;;;;19.83;9.35;;;;;;;4.79;100.00;103124.25;4976891;28;20031;-84
2023/12/18 05:19:32;;;;;;;20.10;9.30;;;;;;;4.75;100.00;103122.38;4969790;28;20042;-83
2023/12/18 05:22:13;;;;;;;18.88;9.07;;;;;;;4.77;100.00;103123.31;4977373;28;20512;-84
2023/12/18 05:24:38;;;;;;;18.63;9.15;;;;;;;4.66;100.00;103093.66;4976401;28;20106;-83
2023/12/18 05:27:09;;;;;;;20.77;9.23;;;;;;;4.79;100.00;103116.53;4976672;28;20571;-83
2023/12/18 05:29:35;;;;;;;19.38;8.98;;;;;;;4.78;100.00;103123.38;4976593;28;20475;-83
2023/12/18 05:32:12;;;;;;;17.33;8.17;;;;;;;4.70;100.00;103110.97;4976099;28;20027;-83
2023/12/18 05:34:50;;;;;;;17.50;7.88;;;;;;;4.65;100.00;103108.19;4976868;28;20065;-83
2023/12/18 05:37:18;;;;;;;19.15;8.00;;;;;;;4.65;100.00;103108.19;4976630;28;20113;-83
2023/12/18 05:39:44;;;;;;;16.58;7.40;;;;;;;4.67;100.00;103108.28;4975709;28;20026;-84
2023/12/18 05:42:22;;;;;;;17.00;7.53;;;;;;;4.67;100.00;103114.28;4976837;28;20027;-84
2023/12/18 05:44:50;;;;;;;17.27;7.85;;;;;;;4.64;100.00;103106.44;4976287;28;20023;-84
2023/12/18 05:47:31;;;;;;;17.33;7.85;;;;;;;4.72;100.00;103127.38;4976149;28;20077;-83
2023/12/18 05:49:56;;;;;;;17.30;7.88;;;;;;;4.77;100.00;103136.19;4976320;28;20069;-83
2023/12/18 05:52:21;;;;;;;15.60;7.33;;;;;;;4.69;100.00;103120.41;4975642;28;20475;-84
2023/12/18 05:54:56;;;;;;;13.93;6.53;;;;;;;4.67;100.00;103116.00;4976606;28;20027;-83
2023/12/18 05:57:37;;;;;;;15.45;6.65;;;;;;;4.73;100.00;103119.72;4976470;28;20121;-84
2023/12/18 06:00:04;;;;;;;17.63;7.55;;;;;;;4.79;100.00;103134.53;4975477;28;20563;-83
2023/12/18 06:02:54;;;;;;;20.65;8.93;;;;;;;4.81;100.00;103122.63;4978910;28;20410;-84
2023/12/18 06:05:20;;;;;;;20.63;9.70;;;;;;;4.77;100.00;103116.47;4995518;28;20066;-84
2023/12/18 06:07:48;;;;;;;19.50;9.30;;;;;;;4.77;100.00;103124.19;4994772;28;20057;-83
2023/12/18 06:10:13;;;;;;;20.45;9.73;;;;;;;4.69;100.00;103102.41;4995807;28;20474;-84
2023/12/18 06:12:53;;;;;;;18.77;9.07;;;;;;;4.70;100.00;103114.44;4994821;28;20058;-83
2023/12/18 06:15:22;;;;;;;18.88;8.82;;;;;;;4.77;100.00;103124.19;4994961;28;20030;-83
2023/12/18 06:17:47;;;;;;;19.25;8.70;;;;;;;4.79;100.00;103117.44;4995385;28;20101;-85
2023/12/18 06:20:12;;;;;;;18.90;8.83;;;;;;;4.72;100.00;103107.69;4995675;28;20073;-83
2023/12/18 06:22:38;;;;;;;21.50;10.65;;;;;;;4.76;100.00;103111.28;4994436;28;20452;-83
2023/12/18 06:25:12;;;;;;;18.85;8.88;;;;;;;4.75;100.00;103112.94;4995777;28;20022;-83
2023/12/18 06:27:44;;;;;;;19.35;9.35;;;;;;;4.79;100.00;103119.09;4994210;28;20026;-84
2023/12/18 06:30:10;;;;;;;19.83;9.63;;;;;;;4.83;100.00;103127.88;5018537;23;20077;-84
2023/12/18 06:32:35;;;;;;;18.73;8.27;;;;;;;4.85;100.00;103124.53;4994650;28;20112;-84
2023/12/18 06:35:00;;;;;;;18.53;8.30;;;;;;;4.80;100.00;103115.72;4994488;28;20033;-83
2023/12/18 06:37:32;;;;;;;20.07;9.00;;;;;;;4.83;100.00;103115.00;4995314;28;20383;-83
2023/12/18 06:39:57;;;;;;;18.52;8.27;;;;;;;4.83;100.00;103120.16;4994931;28;20046;-81
2023/12/18 06:42:22;;;;;;;17.77;7.93;;;;;;;4.87;100.00;103122.03;4993882;28;20023;-82
2023/12/18 06:44:48;;;;;;;18.70;8.50;;;;;;;4.86;100.00;103118.59;4994478;28;20074;-83
2023/12/18 06:47:25;;;;;;;18.83;8.37;;;;;;;4.71;100.00;103090.47;5017418;23;20077;-83
2023/12/18 06:49:53;;;;;;;20.50;9.07;;;;;;;4.79;100.00;103101.09;4973735;28;20035;-83
2023/12/18 06:52:24;;;;;;;17.90;8.50;;;;;;;4.83;100.00;103115.88;4975178;28;20113;-83
2023/12/18 06:54:56;;;;;;;19.73;9.07;;;;;;;4.78;100.00;103110.53;4974685;28;20019;-83
2023/12/18 06:57:21;;;;;;;20.25;9.70;;;;;;;4.80;100.00;103105.44;4973719;28;20027;-83
2023/12/18 06:59:46;;;;;;;20.37;9.77;;;;;;;4.78;100.00;103110.53;4974428;28;20463;-84
2023/12/18 07:02:12;;;;;;;20.37;9.17;;;;;;;4.77;100.00;103107.91;4974496;28;20105;-84
2023/12/18 07:04:49;;;;;;;20.50;9.10;;;;;;;4.87;100.00;103129.75;5006868;23;21259;-84
2023/12/18 07:07:14;;;;;;;20.90;10.05;;;;;;;4.74;100.00;103108.59;4994048;28;20022;-83
2023/12/18 07:09:40;;;;;;;20.57;9.67;;;;;;;4.84;100.00;103127.06;4992929;28;20482;-84
2023/12/18 07:12:06;;;;;;;20.47;9.70;;;;;;;4.87;100.00;103129.75;4994313;28;20030;-84
2023/12/18 07:14:31;;;;;;;21.02;9.48;;;;;;;4.87;100.00;103127.19;4993977;28;20054;-83
2023/12/18 07:16:56;;;;;;;20.40;9.32;;;;;;;4.84;100.00;103122.78;4993496;28;20526;-83
2023/12/18 07:19:28;;;;;;;20.40;8.35;;;;;;;4.85;100.00;103142.56;4993872;28;20026;-84
2023/12/18 07:21:56;;;;;;;18.40;8.10;;;;;;;4.86;100.00;103146.91;4994158;28;20105;-84
2023/12/18 07:24:21;;;;;;;17.38;8.00;;;;;;;4.79;100.00;103138.00;4993578;28;20037;-83
2023/12/18 07:26:47;;;;;;;16.50;7.33;;;;;;;4.85;100.00;103141.66;4993926;28;20026;-83
2023/12/18 07:29:12;;;;;;;15.70;6.72;;;;;;;4.77;100.00;103133.63;4993389;28;20076;-83
2023/12/18 07:31:38;;;;;;;15.68;6.78;;;;;;;4.87;100.00;103140.03;4992907;28;20096;-83
2023/12/18 07:34:03;;;;;;;14.55;6.75;;;;;;;4.88;100.00;103150.44;4993791;28;20053;-84
2023/12/18 07:36:29;;;;;;;15.18;6.57;;;;;;;4.89;100.00;103141.00;4993686;28;20105;-85
2023/12/18 07:38:54;;;;;;;19.50;8.98;;;;;;;4.98;100.00;103135.41;4991844;28;20549;-86
2023/12/18 07:41:37;;;;;;;21.13;9.80;;;;;;;4.82;100.00;103114.09;4993493;28;20471;-86
2023/12/18 07:44:43;;;;;;;21.35;9.43;;;;;;;4.94;100.00;103140.41;4994132;28;20057;-84
2023/12/18 07:47:09;;;;;;;19.92;8.38;;;;;;;4.83;100.00;103120.16;4993466;28;20483;-86
2023/12/18 07:49:48;;;;;;;19.02;8.48;;;;;;;4.90;100.00;103122.19;4993343;28;20479;-86
2023/12/18 07:52:33;;;;;;;18.77;8.55;;;;;;;4.96;100.00;103127.59;4993182;28;20398;-84
2023/12/18 07:55:10;;;;;;;18.23;8.63;;;;;;;4.86;100.00;103104.81;4992412;28;20046;-85
2023/12/18 07:57:35;;;;;;;23.02;10.35;;;;;;;4.91;100.00;103114.50;4992282;28;20018;-84
2023/12/18 08:00:01;;;;;;;22.10;9.93;;;;;;;4.92;100.00;103125.72;4992721;28;20034;-83
2023/12/18 08:02:36;;;;;;;19.55;9.07;;;;;;;4.91;100.00;103121.38;4993334;28;20034;-85
2023/12/18 08:05:01;;;;;;;21.02;9.57;;;;;;;4.93;100.00;103114.59;4993316;28;20050;-85
2023/12/18 08:07:26;;;;;;;21.73;10.17;;;;;;;4.97;100.00;103123.34;4992638;28;20109;-83
2023/12/18 08:09:52;;;;;;;22.47;11.63;;;;;;;5.04;100.00;103130.50;4993229;28;20422;-83
2023/12/18 08:12:23;;;;;;;21.40;10.97;;;;;;;4.98;100.00;103114.81;4994219;28;20130;-88
2023/12/18 08:14:48;;;;;;;20.67;9.88;;;;;;;4.98;100.00;103110.53;4993230;28;20084;-87
2023/12/18 08:17:16;;;;;;;20.87;9.87;;;;;;;5.03;100.00;103113.31;4993761;28;20018;-82
2023/12/18 08:19:51;;;;;;;22.02;10.52;;;;;;;5.02;100.00;103111.53;4993156;28;20022;-83
2023/12/18 08:22:16;;;;;;;20.75;9.95;;;;;;;5.03;100.00;103109.06;4992484;28;20057;-83
2023/12/18 08:24:42;;;;;;;22.50;11.03;;;;;;;5.02;100.00;103106.38;4994663;28;20022;-83
2023/12/18 08:27:07;;;;;;;22.03;10.97;;;;;;;5.05;100.00;103114.25;4996476;28;20022;-83
2023/12/18 08:29:32;;;;;;;22.60;11.05;;;;;;;5.07;100.00;103110.94;4996665;28;20026;-83
2023/12/18 08:31:57;;;;;;;24.77;12.00;;;;;;;5.11;100.00;103104.25;4997095;28;20497;-82
2023/12/18 08:34:25;;;;;;;24.13;11.75;;;;;;;5.15;100.00;103111.28;4996332;28;20019;-83
2023/12/18 08:36:52;;;;;;;22.48;11.25;;;;;;;5.13;100.00;103100.03;4996641;28;20145;-82
2023/12/18 08:39:18;;;;;;;22.80;11.38;;;;;;;5.10;100.00;103105.91;5080761;23;20054;-83
2023/12/18 08:41:55;;;;;;;21.90;10.87;;;;;;;5.12;100.00;103099.97;4995722;28;20029;-82
2023/12/18 08:44:26;;;;;;;21.63;10.98;;;;;;;5.20;100.00;103096.91;4996709;28;20030;-83
2023/12/18 08:47:02;;;;;;;21.38;10.27;;;;;;;5.22;100.00;103107.28;4996511;28;20023;-81
2023/12/18 08:49:27;;;;;;;22.38;11.20;;;;;;;5.10;100.00;103077.59;4996270;28;20033;-83
2023/12/18 08:51:53;;;;;;;21.53;10.10;;;;;;;5.23;100.00;103097.06;4996028;28;20026;-83
2023/12/18 08:54:18;;;;;;;20.45;9.70;;;;;;;5.26;100.00;103088.56;4996883;28;20030;-83
2023/12/18 08:56:43;;;;;;;21.27;10.27;;;;;;;5.26;100.00;103097.16;4995626;28;20053;-83
2023/12/18 08:59:10;;;;;;;20.43;9.90;;;;;;;5.31;100.00;103101.66;4996657;28;20105;-83
2023/12/18 09:01:37;;;;;;;22.73;11.13;;;;;;;5.28;100.00;103092.09;4995938;28;20058;-84
2023/12/18 09:04:06;;;;;;;20.67;10.88;;;;;;;5.30;100.00;103098.16;4995795;28;20057;-83
2023/12/18 09:06:38;;;;;;;22.55;10.70;;;;;;;5.30;100.00;103100.75;4996276;28;20113;-83
2023/12/18 09:09:04;;;;;;;21.23;10.07;;;;;;;5.31;100.00;103097.38;4995955;28;20029;-84
2023/12/18 09:11:33;;;;;;;20.67;9.50;;;;;;;5.35;100.00;103098.38;4996712;28;20031;-84
2023/12/18 09:13:59;;;;;;;21.02;10.65;;;;;;;5.40;100.00;103094.31;4996382;28;20034;-83
2023/12/18 09:16:24;;;;;;;20.50;9.63;;;;;;;5.35;100.00;103088.06;4995521;28;20852;-83
2023/12/18 09:18:49;;;;;;;21.90;10.77;;;;;;;5.42;100.00;103092.69;4996252;28;20030;-84
2023/12/18 09:21:14;;;;;;;20.48;10.25;;;;;;;5.36;100.00;103069.22;4995290;28;20034;-84
2023/12/18 09:23:41;;;;;;;23.15;11.20;;;;;;;5.47;100.00;103080.88;4994804;28;20617;-83
2023/12/18 09:26:06;;;;;;;22.20;11.05;;;;;;;5.59;100.00;103093.38;4996043;28;20387;-84
2023/12/18 09:28:31;;;;;;;22.27;10.70;;;;;;;5.55;100.00;103089.81;4995813;28;20080;-83
2023/12/18 09:30:56;;;;;;;21.20;10.57;;;;;;;5.55;100.00;103102.69;4995166;28;20061;-83
2023/12/18 09:33:22;;;;;;;20.38;11.02;;;;;;;5.53;100.00;103095.69;4995975;28;20031;-83
2023/12/18 09:35:47;;;;;;;21.85;10.50;;;;;;;5.57;100.00;103107.91;4994434;28;20023;-84
2023/12/18 09:38:13;;;;;;;21.38;10.43;;;;;;;5.54;100.00;103107.75;4994966;28;20414;-83
2023/12/18 09:40:42;;;;;;;21.17;10.20;;;;;;;5.53;100.00;103108.56;4995477;28;20489;-83
2023/12/18 09:43:08;;;;;;;20.13;9.45;;;;;;;5.53;100.00;103104.31;4995548;28;20041;-83
2023/12/18 09:45:33;;;;;;;22.57;10.77;;;;;;;5.54;100.00;103106.09;4994652;28;20113;-84
2023/12/18 09:48:01;;;;;;;20.13;9.32;;;;;;;5.43;100.00;103084.16;4995705;28;20111;-84
2023/12/18 09:50:45;;;;;;;19.42;8.65;;;;;;;5.55;100.00;103084.66;4995754;28;20034;-84
2023/12/18 09:53:23;;;;;;;20.45;9.60;;;;;;;5.45;100.00;103064.50;4994818;28;20030;-83
2023/12/18 09:55:56;;;;;;;20.85;9.70;;;;;;;5.56;100.00;103091.56;4994266;28;20430;-84
2023/12/18 09:58:35;;;;;;;22.83;10.52;;;;;;;5.61;100.00;103091.78;4991706;28;20037;-84
2023/12/18 10:01:10;;;;;;;21.25;10.20;;;;;;;5.49;100.00;103074.09;4995446;28;20490;-84
2023/12/18 10:03:35;;;;;;;20.50;10.25;;;;;;;5.63;100.00;103087.53;4995572;28;20141;-83
2023/12/18 10:06:04;;;;;;;20.23;9.43;;;;;;;5.56;100.00;103076.13;4994717;28;20085;-84
2023/12/18 10:08:30;;;;;;;18.20;8.00;;;;;;;5.54;100.00;103082.91;4995411;28;20022;-84
2023/12/18 10:10:55;;;;;;;18.43;8.63;;;;;;;5.62;100.00;103084.91;4995202;28;20030;-85
2023/12/18 10:13:27;;;;;;;20.25;9.30;;;;;;;5.61;100.00;103089.19;4994655;28;20042;-85
2023/12/18 10:15:54;;;;;;;20.65;10.00;;;;;;;5.64;100.00;103088.44;4995128;28;20022;-84
2023/12/18 10:18:23;;;;;;;23.30;10.95;;;;;;;5.56;100.00;103072.66;4995310;28;20483;-84
2023/12/18 10:20:49;;;;;;;19.63;9.25;;;;;;;5.64;100.00;103081.56;4994156;28;20498;-84
2023/12/18 10:23:14;;;;;;;19.47;8.77;;;;;;;5.67;100.00;103089.44;4995042;28;20026;-84
2023/12/18 10:25:42;;;;;;;21.83;10.27;;;;;;;5.68;100.00;103082.59;4994821;28;20370;-84
2023/12/18 10:28:08;;;;;;;21.50;10.25;;;;;;;5.65;100.00;103078.16;4994033;28;20036;-84
2023/12/18 10:30:37;;;;;;;22.27;9.80;;;;;;;5.64;100.00;103076.41;4994844;28;20026;-85
2023/12/18 10:33:09;;;;;;;20.55;9.68;;;;;;;5.63;100.00;103078.94;4994673;28;20026;-84
2023/12/18 10:35:35;;;;;;;20.55;9.50;;;;;;;5.63;100.00;103071.22;4993761;28;20023;-85
2023/12/18 10:38:01;;;;;;;21.60;9.83;;;;;;;5.60;100.00;103065.91;4994946;28;20553;-83
2023/12/18 10:40:29;;;;;;;19.90;9.47;;;;;;;5.56;100.00;103059.78;4994949;28;20411;-84
2023/12/18 10:43:07;;;;;;;20.73;9.10;;;;;;;5.59;100.00;103070.22;4994043;28;20380;-84
2023/12/18 10:45:34;;;;;;;20.90;9.52;;;;;;;5.61;100.00;103058.28;4994479;28;20085;-82
2023/12/18 10:48:00;;;;;;;20.65;10.02;;;;;;;5.58;100.00;103050.41;4993693;28;20034;-81
2023/12/18 10:50:30;;;;;;;19.60;8.90;;;;;;;5.61;100.00;103053.13;4995612;28;20026;-83
2023/12/18 10:52:58;;;;;;;20.55;9.38;;;;;;;5.66;100.00;103041.28;4994363;28;20069;-83
2023/12/18 10:55:23;;;;;;;20.60;9.13;;;;;;;5.64;100.00;103042.91;4994220;28;20030;-83
2023/12/18 10:57:49;;;;;;;19.40;8.57;;;;;;;5.64;100.00;103036.91;4994495;28;20092;-82
2023/12/18 11:00:15;;;;;;;20.70;9.05;;;;;;;5.68;100.00;103039.66;4994595;28;20026;-82
2023/12/18 11:02:42;;;;;;;19.83;9.18;;;;;;;5.67;100.00;103035.31;4993728;28;20033;-83
2023/12/18 11:05:08;;;;;;;;;;;;;;;5.69;100.00;103031.13;4995354;28;20022;-82
2023/12/18 11:07:34;;;;;;;19.50;8.87;;;;;;;5.66;100.00;103028.41;4993932;28;19948;-82
2023/12/18 11:09:59;;;;;;;21.97;9.43;;;;;;;5.69;100.00;103030.22;4993609;28;20030;-83
2023/12/18 11:12:26;;;;;;;20.07;8.87;;;;;;;5.68;100.00;103028.50;4994033;28;20391;-83
2023/12/18 11:15:04;;;;;;;20.08;8.43;;;;;;;5.67;100.00;103032.75;4993864;28;20062;-82
2023/12/18 11:17:58;;;;;;;19.58;9.15;;;;;;;5.66;100.00;103025.84;4993609;28;20105;-82
2023/12/18 11:20:31;;;;;;;19.92;9.00;;;;;;;5.68;100.00;103031.06;4994693;28;20030;-83
2023/12/18 11:22:57;;;;;;;17.90;8.13;;;;;;;5.68;100.00;103026.78;4994002;28;20034;-82
2023/12/18 11:25:35;;;;;;;21.80;10.13;;;;;;;5.71;100.00;103028.59;4994402;28;20053;-83
2023/12/18 11:28:04;;;;;;;21.65;10.05;;;;;;;5.68;100.00;103025.91;4994624;28;20022;-82
2023/12/18 11:30:34;;;;;;;23.35;10.82;;;;;;;5.67;100.00;103025.03;4993859;28;20022;-79
2023/12/18 11:33:04;;;;;;;21.27;10.55;;;;;;;5.63;100.00;103027.41;4994682;28;20028;-83